sensor_id;sensor_type;location;lat;lon;timestamp;P1;durP1;ratioP1;P2;durP2;ratioP2
39970;SDS011;35425;51.142;17.178;2022-10-16T00:00:37;4.78;;;4.38;;
39970;SDS011;35425;51.142;17.178;2022-10-16T00:03:04;4.45;;;4.05;;
39970;SDS011;35425;51.142;17.178;2022-10-16T00:05:31;4.30;;;3.90;;
39970;SDS011;35425;51.142;17.178;2022-10-16T00:07:57;4.35;;;3.95;;
39970;SDS011;35425;51.142;17.178;2022-10-16T00:10:24;4.35;;;3.95;;
39970;SDS011;35425;51.142;17.178;2022-10-16T00:12:50;4.38;;;3.97;;
39970;SDS011;35425;51.142;17.178;2022-10-16T00:15:17;3.22;;;3.00;;
39970;SDS011;35425;51.142;17.178;2022-10-16T00:17:44;4.22;;;3.83;;
39970;SDS011;35425;51.142;17.178;2022-10-16T00:20:10;4.00;;;3.60;;
39970;SDS011;35425;51.142;17.178;2022-10-16T00:22:36;3.63;;;3.33;;
39970;SDS011;35425;51.142;17.178;2022-10-16T00:25:03;3.70;;;3.40;;
39970;SDS011;35425;51.142;17.178;2022-10-16T00:27:29;3.90;;;3.60;;
39970;SDS011;35425;51.142;17.178;2022-10-16T00:29:56;3.53;;;3.22;;
39970;SDS011;35425;51.142;17.178;2022-10-16T00:32:27;3.50;;;3.20;;
39970;SDS011;35425;51.142;17.178;2022-10-16T00:34:54;3.55;;;3.22;;
39970;SDS011;35425;51.142;17.178;2022-10-16T00:37:20;3.28;;;3.08;;
39970;SDS011;35425;51.142;17.178;2022-10-16T00:39:47;3.58;;;3.28;;
39970;SDS011;35425;51.142;17.178;2022-10-16T00:42:17;3.25;;;2.95;;
39970;SDS011;35425;51.142;17.178;2022-10-16T00:44:46;3.50;;;3.20;;
39970;SDS011;35425;51.142;17.178;2022-10-16T00:47:15;3.03;;;2.83;;
39970;SDS011;35425;51.142;17.178;2022-10-16T00:49:43;3.30;;;3.00;;
39970;SDS011;35425;51.142;17.178;2022-10-16T00:52:10;2.95;;;2.65;;
39970;SDS011;35425;51.142;17.178;2022-10-16T00:54:37;2.97;;;2.67;;
39970;SDS011;35425;51.142;17.178;2022-10-16T00:57:04;2.88;;;2.67;;
39970;SDS011;35425;51.142;17.178;2022-10-16T01:01:58;2.90;;;2.60;;
39970;SDS011;35425;51.142;17.178;2022-10-16T01:04:25;2.90;;;2.70;;
39970;SDS011;35425;51.142;17.178;2022-10-16T01:06:57;3.03;;;2.83;;
39970;SDS011;35425;51.142;17.178;2022-10-16T01:14:32;2.55;;;2.28;;
39970;SDS011;35425;51.142;17.178;2022-10-16T01:17:11;2.58;;;2.38;;
39970;SDS011;35425;51.142;17.178;2022-10-16T01:22:17;2.65;;;2.45;;
39970;SDS011;35425;51.142;17.178;2022-10-16T01:24:46;2.40;;;2.20;;
39970;SDS011;35425;51.142;17.178;2022-10-16T01:27:15;2.13;;;2.03;;
39970;SDS011;35425;51.142;17.178;2022-10-16T01:29:51;2.47;;;2.28;;
39970;SDS011;35425;51.142;17.178;2022-10-16T01:32:23;2.22;;;2.03;;
39970;SDS011;35425;51.142;17.178;2022-10-16T01:34:52;2.90;;;2.00;;
39970;SDS011;35425;51.142;17.178;2022-10-16T01:37:29;2.40;;;2.20;;
39970;SDS011;35425;51.142;17.178;2022-10-16T01:39:58;2.20;;;2.00;;
39970;SDS011;35425;51.142;17.178;2022-10-16T01:42:26;2.40;;;2.20;;
39970;SDS011;35425;51.142;17.178;2022-10-16T01:44:54;2.20;;;2.00;;
39970;SDS011;35425;51.142;17.178;2022-10-16T01:47:22;2.40;;;2.20;;
39970;SDS011;35425;51.142;17.178;2022-10-16T01:49:50;2.13;;;2.00;;
39970;SDS011;35425;51.142;17.178;2022-10-16T01:52:19;1.95;;;1.77;;
39970;SDS011;35425;51.142;17.178;2022-10-16T01:54:47;2.10;;;1.90;;
39970;SDS011;35425;51.142;17.178;2022-10-16T01:57:15;2.08;;;1.88;;
39970;SDS011;35425;51.142;17.178;2022-10-16T01:59:48;2.10;;;1.90;;
39970;SDS011;35425;51.142;17.178;2022-10-16T02:02:17;2.10;;;1.90;;
39970;SDS011;35425;51.142;17.178;2022-10-16T02:04:45;2.00;;;1.80;;
39970;SDS011;35425;51.142;17.178;2022-10-16T02:07:12;1.98;;;1.77;;
39970;SDS011;35425;51.142;17.178;2022-10-16T02:09:39;1.90;;;1.80;;
39970;SDS011;35425;51.142;17.178;2022-10-16T02:12:09;1.80;;;1.70;;
39970;SDS011;35425;51.142;17.178;2022-10-16T02:14:37;1.90;;;1.80;;
39970;SDS011;35425;51.142;17.178;2022-10-16T02:17:14;1.67;;;1.58;;
39970;SDS011;35425;51.142;17.178;2022-10-16T02:19:41;1.90;;;1.70;;
39970;SDS011;35425;51.142;17.178;2022-10-16T02:22:08;1.60;;;1.50;;
39970;SDS011;35425;51.142;17.178;2022-10-16T02:24:39;1.70;;;1.60;;
39970;SDS011;35425;51.142;17.178;2022-10-16T02:27:09;1.63;;;1.50;;
39970;SDS011;35425;51.142;17.178;2022-10-16T02:29:39;1.50;;;1.40;;
39970;SDS011;35425;51.142;17.178;2022-10-16T02:32:07;1.60;;;1.48;;
39970;SDS011;35425;51.142;17.178;2022-10-16T02:34:34;2.08;;;1.30;;
39970;SDS011;35425;51.142;17.178;2022-10-16T02:37:02;1.25;;;1.15;;
39970;SDS011;35425;51.142;17.178;2022-10-16T02:39:30;2.38;;;1.58;;
39970;SDS011;35425;51.142;17.178;2022-10-16T02:41:57;1.58;;;1.48;;
39970;SDS011;35425;51.142;17.178;2022-10-16T02:44:23;1.48;;;1.38;;
39970;SDS011;35425;51.142;17.178;2022-10-16T02:46:50;1.30;;;1.20;;
39970;SDS011;35425;51.142;17.178;2022-10-16T02:49:16;1.40;;;1.30;;
39970;SDS011;35425;51.142;17.178;2022-10-16T02:51:43;1.50;;;1.30;;
39970;SDS011;35425;51.142;17.178;2022-10-16T02:54:10;1.60;;;1.50;;
39970;SDS011;35425;51.142;17.178;2022-10-16T02:56:36;1.40;;;1.30;;
39970;SDS011;35425;51.142;17.178;2022-10-16T02:59:03;1.35;;;1.25;;
39970;SDS011;35425;51.142;17.178;2022-10-16T03:01:29;1.42;;;1.33;;
39970;SDS011;35425;51.142;17.178;2022-10-16T03:03:56;1.50;;;1.40;;
39970;SDS011;35425;51.142;17.178;2022-10-16T03:06:22;1.40;;;1.30;;
39970;SDS011;35425;51.142;17.178;2022-10-16T03:08:49;1.40;;;1.30;;
39970;SDS011;35425;51.142;17.178;2022-10-16T03:11:16;1.10;;;1.00;;
39970;SDS011;35425;51.142;17.178;2022-10-16T03:13:42;1.20;;;1.10;;
39970;SDS011;35425;51.142;17.178;2022-10-16T03:16:09;1.23;;;1.13;;
39970;SDS011;35425;51.142;17.178;2022-10-16T03:18:35;1.23;;;1.13;;
39970;SDS011;35425;51.142;17.178;2022-10-16T03:21:02;1.42;;;1.10;;
39970;SDS011;35425;51.142;17.178;2022-10-16T03:23:28;1.40;;;1.30;;
39970;SDS011;35425;51.142;17.178;2022-10-16T03:25:56;1.48;;;1.08;;
39970;SDS011;35425;51.142;17.178;2022-10-16T03:28:22;1.27;;;1.17;;
39970;SDS011;35425;51.142;17.178;2022-10-16T03:30:49;1.40;;;1.17;;
39970;SDS011;35425;51.142;17.178;2022-10-16T03:33:15;1.23;;;1.00;;
39970;SDS011;35425;51.142;17.178;2022-10-16T03:35:41;1.02;;;0.93;;
39970;SDS011;35425;51.142;17.178;2022-10-16T03:38:08;1.23;;;1.13;;
39970;SDS011;35425;51.142;17.178;2022-10-16T03:40:34;1.25;;;1.15;;
39970;SDS011;35425;51.142;17.178;2022-10-16T03:43:01;1.13;;;1.02;;
39970;SDS011;35425;51.142;17.178;2022-10-16T03:45:27;1.20;;;1.10;;
39970;SDS011;35425;51.142;17.178;2022-10-16T03:47:54;0.82;;;0.75;;
39970;SDS011;35425;51.142;17.178;2022-10-16T03:50:21;0.80;;;0.80;;
39970;SDS011;35425;51.142;17.178;2022-10-16T03:52:47;1.05;;;1.00;;
39970;SDS011;35425;51.142;17.178;2022-10-16T03:55:13;1.40;;;1.30;;
39970;SDS011;35425;51.142;17.178;2022-10-16T03:57:40;1.20;;;1.10;;
39970;SDS011;35425;51.142;17.178;2022-10-16T04:00:06;0.80;;;0.80;;
39970;SDS011;35425;51.142;17.178;2022-10-16T04:02:33;1.08;;;0.95;;
39970;SDS011;35425;51.142;17.178;2022-10-16T04:04:59;1.10;;;1.00;;
39970;SDS011;35425;51.142;17.178;2022-10-16T04:07:26;1.00;;;0.90;;
39970;SDS011;35425;51.142;17.178;2022-10-16T04:09:53;1.05;;;1.00;;
39970;SDS011;35425;51.142;17.178;2022-10-16T04:12:19;1.00;;;0.90;;
39970;SDS011;35425;51.142;17.178;2022-10-16T04:14:46;1.13;;;1.02;;
39970;SDS011;35425;51.142;17.178;2022-10-16T04:17:12;0.80;;;0.80;;
39970;SDS011;35425;51.142;17.178;2022-10-16T04:19:38;0.80;;;0.80;;
39970;SDS011;35425;51.142;17.178;2022-10-16T04:22:05;1.13;;;0.80;;
39970;SDS011;35425;51.142;17.178;2022-10-16T04:24:31;0.90;;;0.90;;
39970;SDS011;35425;51.142;17.178;2022-10-16T04:26:58;0.93;;;0.90;;
39970;SDS011;35425;51.142;17.178;2022-10-16T04:29:24;0.80;;;0.75;;
39970;SDS011;35425;51.142;17.178;2022-10-16T04:31:51;0.82;;;0.70;;
39970;SDS011;35425;51.142;17.178;2022-10-16T04:34:17;0.80;;;0.70;;
39970;SDS011;35425;51.142;17.178;2022-10-16T04:36:46;0.90;;;0.90;;
39970;SDS011;35425;51.142;17.178;2022-10-16T04:39:13;1.00;;;0.90;;
39970;SDS011;35425;51.142;17.178;2022-10-16T04:41:39;0.90;;;0.90;;
39970;SDS011;35425;51.142;17.178;2022-10-16T04:44:06;1.20;;;1.00;;
39970;SDS011;35425;51.142;17.178;2022-10-16T04:46:32;0.70;;;0.70;;
39970;SDS011;35425;51.142;17.178;2022-10-16T04:48:59;0.85;;;0.80;;
39970;SDS011;35425;51.142;17.178;2022-10-16T04:51:25;0.70;;;0.70;;
39970;SDS011;35425;51.142;17.178;2022-10-16T04:53:53;0.80;;;0.80;;
39970;SDS011;35425;51.142;17.178;2022-10-16T04:56:20;0.90;;;0.80;;
39970;SDS011;35425;51.142;17.178;2022-10-16T04:58:47;1.00;;;1.00;;
39970;SDS011;35425;51.142;17.178;2022-10-16T05:01:14;0.82;;;0.82;;
39970;SDS011;35425;51.142;17.178;2022-10-16T05:03:40;1.05;;;0.95;;
39970;SDS011;35425;51.142;17.178;2022-10-16T05:06:07;0.80;;;0.80;;
39970;SDS011;35425;51.142;17.178;2022-10-16T05:08:33;1.08;;;0.98;;
39970;SDS011;35425;51.142;17.178;2022-10-16T05:11:00;1.00;;;0.90;;
39970;SDS011;35425;51.142;17.178;2022-10-16T05:13:27;1.42;;;1.10;;
39970;SDS011;35425;51.142;17.178;2022-10-16T05:15:54;1.00;;;0.90;;
39970;SDS011;35425;51.142;17.178;2022-10-16T05:18:20;1.05;;;0.95;;
39970;SDS011;35425;51.142;17.178;2022-10-16T05:20:46;0.70;;;0.70;;
39970;SDS011;35425;51.142;17.178;2022-10-16T05:23:13;1.10;;;1.00;;
39970;SDS011;35425;51.142;17.178;2022-10-16T05:25:39;0.95;;;0.95;;
39970;SDS011;35425;51.142;17.178;2022-10-16T05:28:06;0.80;;;0.80;;
39970;SDS011;35425;51.142;17.178;2022-10-16T05:30:32;1.10;;;1.00;;
39970;SDS011;35425;51.142;17.178;2022-10-16T05:32:59;0.90;;;0.90;;
39970;SDS011;35425;51.142;17.178;2022-10-16T05:35:25;0.60;;;0.60;;
39970;SDS011;35425;51.142;17.178;2022-10-16T05:37:52;0.93;;;0.90;;
39970;SDS011;35425;51.142;17.178;2022-10-16T05:40:18;0.90;;;0.73;;
39970;SDS011;35425;51.142;17.178;2022-10-16T05:42:45;1.05;;;0.95;;
39970;SDS011;35425;51.142;17.178;2022-10-16T05:45:11;0.80;;;0.80;;
39970;SDS011;35425;51.142;17.178;2022-10-16T05:47:38;1.02;;;0.98;;
39970;SDS011;35425;51.142;17.178;2022-10-16T05:50:05;0.82;;;0.82;;
39970;SDS011;35425;51.142;17.178;2022-10-16T05:52:31;0.88;;;0.88;;
39970;SDS011;35425;51.142;17.178;2022-10-16T05:54:58;0.90;;;0.90;;
39970;SDS011;35425;51.142;17.178;2022-10-16T05:57:24;0.80;;;0.80;;
39970;SDS011;35425;51.142;17.178;2022-10-16T05:59:51;0.90;;;0.90;;
39970;SDS011;35425;51.142;17.178;2022-10-16T06:02:17;0.88;;;0.80;;
39970;SDS011;35425;51.142;17.178;2022-10-16T06:04:44;0.80;;;0.80;;
39970;SDS011;35425;51.142;17.178;2022-10-16T06:07:10;0.73;;;0.73;;
39970;SDS011;35425;51.142;17.178;2022-10-16T06:09:37;1.00;;;0.90;;
39970;SDS011;35425;51.142;17.178;2022-10-16T06:12:03;0.80;;;0.80;;
39970;SDS011;35425;51.142;17.178;2022-10-16T06:14:30;1.20;;;1.10;;
39970;SDS011;35425;51.142;17.178;2022-10-16T06:16:56;0.85;;;0.80;;
39970;SDS011;35425;51.142;17.178;2022-10-16T06:19:23;1.00;;;0.90;;
39970;SDS011;35425;51.142;17.178;2022-10-16T06:21:49;0.70;;;0.70;;
39970;SDS011;35425;51.142;17.178;2022-10-16T06:24:16;0.80;;;0.80;;
39970;SDS011;35425;51.142;17.178;2022-10-16T06:26:42;1.00;;;0.90;;
39970;SDS011;35425;51.142;17.178;2022-10-16T06:29:09;1.10;;;1.00;;
39970;SDS011;35425;51.142;17.178;2022-10-16T06:31:35;1.10;;;1.00;;
39970;SDS011;35425;51.142;17.178;2022-10-16T06:34:02;1.25;;;0.90;;
39970;SDS011;35425;51.142;17.178;2022-10-16T06:36:30;0.85;;;0.82;;
39970;SDS011;35425;51.142;17.178;2022-10-16T06:38:57;0.75;;;0.75;;
39970;SDS011;35425;51.142;17.178;2022-10-16T06:41:23;1.90;;;1.10;;
39970;SDS011;35425;51.142;17.178;2022-10-16T06:43:50;1.73;;;1.23;;
39970;SDS011;35425;51.142;17.178;2022-10-16T06:46:17;1.70;;;1.10;;
39970;SDS011;35425;51.142;17.178;2022-10-16T06:48:44;2.90;;;1.50;;
39970;SDS011;35425;51.142;17.178;2022-10-16T06:53:38;2.72;;;1.80;;
39970;SDS011;35425;51.142;17.178;2022-10-16T06:56:25;3.05;;;2.20;;
39970;SDS011;35425;51.142;17.178;2022-10-16T06:58:52;5.10;;;2.55;;
39970;SDS011;35425;51.142;17.178;2022-10-16T07:01:21;5.75;;;2.50;;
39970;SDS011;35425;51.142;17.178;2022-10-16T07:03:48;4.50;;;2.60;;
39970;SDS011;35425;51.142;17.178;2022-10-16T07:06:17;4.20;;;2.45;;
39970;SDS011;35425;51.142;17.178;2022-10-16T07:08:45;3.85;;;2.85;;
39970;SDS011;35425;51.142;17.178;2022-10-16T07:11:16;5.13;;;2.70;;
39970;SDS011;35425;51.142;17.178;2022-10-16T07:13:42;5.43;;;3.00;;
39970;SDS011;35425;51.142;17.178;2022-10-16T07:18:36;4.22;;;2.55;;
39970;SDS011;35425;51.142;17.178;2022-10-16T07:21:04;3.72;;;2.30;;
39970;SDS011;35425;51.142;17.178;2022-10-16T07:23:30;4.63;;;2.97;;
39970;SDS011;35425;51.142;17.178;2022-10-16T07:25:57;3.83;;;2.50;;
39970;SDS011;35425;51.142;17.178;2022-10-16T07:28:23;4.40;;;2.88;;
39970;SDS011;35425;51.142;17.178;2022-10-16T07:30:50;4.18;;;2.75;;
39970;SDS011;35425;51.142;17.178;2022-10-16T07:33:16;4.05;;;2.30;;
39970;SDS011;35425;51.142;17.178;2022-10-16T07:35:52;4.72;;;2.55;;
39970;SDS011;35425;51.142;17.178;2022-10-16T07:38:19;2.90;;;2.38;;
39970;SDS011;35425;51.142;17.178;2022-10-16T07:40:46;4.22;;;2.75;;
39970;SDS011;35425;51.142;17.178;2022-10-16T07:43:13;2.83;;;2.20;;
39970;SDS011;35425;51.142;17.178;2022-10-16T07:45:49;3.25;;;2.70;;
39970;SDS011;35425;51.142;17.178;2022-10-16T07:48:17;3.08;;;2.28;;
39970;SDS011;35425;51.142;17.178;2022-10-16T07:50:44;2.97;;;2.05;;
39970;SDS011;35425;51.142;17.178;2022-10-16T07:53:11;2.58;;;2.33;;
39970;SDS011;35425;51.142;17.178;2022-10-16T07:55:38;4.40;;;2.38;;
39970;SDS011;35425;51.142;17.178;2022-10-16T07:58:04;3.13;;;1.85;;
39970;SDS011;35425;51.142;17.178;2022-10-16T08:00:31;3.20;;;2.22;;
39970;SDS011;35425;51.142;17.178;2022-10-16T08:02:58;2.88;;;1.98;;
39970;SDS011;35425;51.142;17.178;2022-10-16T08:05:28;3.88;;;2.03;;
39970;SDS011;35425;51.142;17.178;2022-10-16T08:07:55;2.55;;;1.98;;
39970;SDS011;35425;51.142;17.178;2022-10-16T08:10:23;2.38;;;2.05;;
39970;SDS011;35425;51.142;17.178;2022-10-16T08:12:51;2.60;;;1.85;;
39970;SDS011;35425;51.142;17.178;2022-10-16T08:15:18;3.42;;;1.90;;
39970;SDS011;35425;51.142;17.178;2022-10-16T08:17:44;2.65;;;2.20;;
39970;SDS011;35425;51.142;17.178;2022-10-16T08:20:11;2.55;;;2.00;;
39970;SDS011;35425;51.142;17.178;2022-10-16T08:22:37;2.00;;;1.80;;
39970;SDS011;35425;51.142;17.178;2022-10-16T08:25:04;2.33;;;1.98;;
39970;SDS011;35425;51.142;17.178;2022-10-16T08:27:31;2.38;;;1.90;;
39970;SDS011;35425;51.142;17.178;2022-10-16T08:29:58;2.17;;;1.75;;
39970;SDS011;35425;51.142;17.178;2022-10-16T08:32:24;2.78;;;1.98;;
39970;SDS011;35425;51.142;17.178;2022-10-16T08:34:52;2.97;;;1.95;;
39970;SDS011;35425;51.142;17.178;2022-10-16T08:37:19;2.42;;;1.80;;
39970;SDS011;35425;51.142;17.178;2022-10-16T08:39:45;3.03;;;2.05;;
39970;SDS011;35425;51.142;17.178;2022-10-16T08:42:18;2.42;;;1.95;;
39970;SDS011;35425;51.142;17.178;2022-10-16T08:50:02;2.25;;;1.80;;
39970;SDS011;35425;51.142;17.178;2022-10-16T08:52:34;3.22;;;1.88;;
39970;SDS011;35425;51.142;17.178;2022-10-16T08:55:03;1.73;;;1.40;;
39970;SDS011;35425;51.142;17.178;2022-10-16T08:57:30;2.85;;;2.13;;
39970;SDS011;35425;51.142;17.178;2022-10-16T09:00:05;2.40;;;1.98;;
39970;SDS011;35425;51.142;17.178;2022-10-16T09:02:37;2.00;;;1.77;;
39970;SDS011;35425;51.142;17.178;2022-10-16T09:05:19;3.03;;;1.92;;
39970;SDS011;35425;51.142;17.178;2022-10-16T09:10:43;2.65;;;1.83;;
39970;SDS011;35425;51.142;17.178;2022-10-16T09:13:21;2.00;;;1.67;;
39970;SDS011;35425;51.142;17.178;2022-10-16T09:15:59;3.20;;;1.88;;
39970;SDS011;35425;51.142;17.178;2022-10-16T09:18:48;2.35;;;1.60;;
39970;SDS011;35425;51.142;17.178;2022-10-16T09:21:19;2.63;;;1.90;;
39970;SDS011;35425;51.142;17.178;2022-10-16T09:23:48;2.20;;;1.65;;
39970;SDS011;35425;51.142;17.178;2022-10-16T09:26:15;2.75;;;1.90;;
39970;SDS011;35425;51.142;17.178;2022-10-16T09:28:42;2.30;;;2.05;;
39970;SDS011;35425;51.142;17.178;2022-10-16T09:31:15;4.00;;;1.92;;
39970;SDS011;35425;51.142;17.178;2022-10-16T09:33:42;2.20;;;1.67;;
39970;SDS011;35425;51.142;17.178;2022-10-16T09:36:10;2.67;;;1.67;;
39970;SDS011;35425;51.142;17.178;2022-10-16T09:38:38;2.25;;;1.88;;
39970;SDS011;35425;51.142;17.178;2022-10-16T09:41:13;2.47;;;1.70;;
39970;SDS011;35425;51.142;17.178;2022-10-16T09:43:41;2.95;;;1.88;;
39970;SDS011;35425;51.142;17.178;2022-10-16T09:46:26;1.70;;;1.48;;
39970;SDS011;35425;51.142;17.178;2022-10-16T09:49:04;1.95;;;1.73;;
39970;SDS011;35425;51.142;17.178;2022-10-16T09:51:35;2.80;;;1.95;;
39970;SDS011;35425;51.142;17.178;2022-10-16T09:54:12;2.58;;;1.77;;
39970;SDS011;35425;51.142;17.178;2022-10-16T09:56:39;1.98;;;1.63;;
39970;SDS011;35425;51.142;17.178;2022-10-16T09:59:13;2.67;;;1.40;;
39970;SDS011;35425;51.142;17.178;2022-10-16T10:01:44;1.90;;;1.60;;
39970;SDS011;35425;51.142;17.178;2022-10-16T10:04:11;1.75;;;1.50;;
39970;SDS011;35425;51.142;17.178;2022-10-16T10:06:45;1.55;;;1.45;;
39970;SDS011;35425;51.142;17.178;2022-10-16T10:09:22;2.00;;;1.65;;
39970;SDS011;35425;51.142;17.178;2022-10-16T10:16:49;1.75;;;1.58;;
39970;SDS011;35425;51.142;17.178;2022-10-16T10:19:16;3.42;;;1.83;;
39970;SDS011;35425;51.142;17.178;2022-10-16T10:21:43;1.88;;;1.70;;
39970;SDS011;35425;51.142;17.178;2022-10-16T10:24:11;1.90;;;1.60;;
39970;SDS011;35425;51.142;17.178;2022-10-16T10:26:38;1.48;;;1.38;;
39970;SDS011;35425;51.142;17.178;2022-10-16T10:29:17;1.63;;;1.40;;
39970;SDS011;35425;51.142;17.178;2022-10-16T10:31:47;1.52;;;1.42;;
39970;SDS011;35425;51.142;17.178;2022-10-16T10:36:42;1.25;;;1.15;;
39970;SDS011;35425;51.142;17.178;2022-10-16T10:39:14;1.48;;;1.38;;
39970;SDS011;35425;51.142;17.178;2022-10-16T10:55:05;1.73;;;1.60;;
39970;SDS011;35425;51.142;17.178;2022-10-16T11:00:21;1.35;;;1.10;;
39970;SDS011;35425;51.142;17.178;2022-10-16T11:02:55;1.30;;;1.20;;
39970;SDS011;35425;51.142;17.178;2022-10-16T11:07:56;1.40;;;1.30;;
39970;SDS011;35425;51.142;17.178;2022-10-16T11:12:51;1.23;;;1.00;;
39970;SDS011;35425;51.142;17.178;2022-10-16T11:15:20;1.27;;;1.15;;
39970;SDS011;35425;51.142;17.178;2022-10-16T11:17:49;1.10;;;1.00;;
39970;SDS011;35425;51.142;17.178;2022-10-16T11:20:23;1.00;;;0.90;;
39970;SDS011;35425;51.142;17.178;2022-10-16T11:25:21;1.02;;;0.93;;
39970;SDS011;35425;51.142;17.178;2022-10-16T11:35:15;1.40;;;1.30;;
39970;SDS011;35425;51.142;17.178;2022-10-16T11:37:44;1.05;;;0.90;;
39970;SDS011;35425;51.142;17.178;2022-10-16T11:43:08;2.13;;;1.27;;
39970;SDS011;35425;51.142;17.178;2022-10-16T11:45:40;1.63;;;1.25;;
39970;SDS011;35425;51.142;17.178;2022-10-16T11:50:54;2.70;;;1.45;;
39970;SDS011;35425;51.142;17.178;2022-10-16T11:53:45;2.25;;;1.20;;
39970;SDS011;35425;51.142;17.178;2022-10-16T11:56:13;1.67;;;1.55;;
39970;SDS011;35425;51.142;17.178;2022-10-16T11:58:46;2.67;;;1.42;;
39970;SDS011;35425;51.142;17.178;2022-10-16T12:01:38;1.65;;;1.45;;
39970;SDS011;35425;51.142;17.178;2022-10-16T12:04:16;1.65;;;1.35;;
39970;SDS011;35425;51.142;17.178;2022-10-16T12:06:47;1.90;;;1.45;;
39970;SDS011;35425;51.142;17.178;2022-10-16T12:11:45;1.52;;;1.13;;
39970;SDS011;35425;51.142;17.178;2022-10-16T12:16:39;2.35;;;1.40;;
39970;SDS011;35425;51.142;17.178;2022-10-16T12:19:17;1.55;;;1.20;;
39970;SDS011;35425;51.142;17.178;2022-10-16T12:21:44;2.47;;;1.30;;
39970;SDS011;35425;51.142;17.178;2022-10-16T12:26:56;1.20;;;1.10;;
39970;SDS011;35425;51.142;17.178;2022-10-16T12:29:41;2.85;;;1.42;;
39970;SDS011;35425;51.142;17.178;2022-10-16T12:35:21;1.40;;;1.30;;
39970;SDS011;35425;51.142;17.178;2022-10-16T12:37:49;1.60;;;1.40;;
39970;SDS011;35425;51.142;17.178;2022-10-16T12:40:26;1.30;;;1.20;;
39970;SDS011;35425;51.142;17.178;2022-10-16T12:42:53;1.40;;;1.30;;
39970;SDS011;35425;51.142;17.178;2022-10-16T12:47:50;1.40;;;1.30;;
39970;SDS011;35425;51.142;17.178;2022-10-16T12:50:28;1.48;;;1.30;;
39970;SDS011;35425;51.142;17.178;2022-10-16T12:52:57;1.40;;;1.30;;
39970;SDS011;35425;51.142;17.178;2022-10-16T12:55:23;1.33;;;1.10;;
39970;SDS011;35425;51.142;17.178;2022-10-16T12:58:00;1.40;;;1.30;;
39970;SDS011;35425;51.142;17.178;2022-10-16T13:00:32;1.73;;;1.63;;
39970;SDS011;35425;51.142;17.178;2022-10-16T13:24:26;2.00;;;1.90;;
39970;SDS011;35425;51.142;17.178;2022-10-16T13:28:59;2.80;;;2.60;;
39970;SDS011;35425;51.142;17.178;2022-10-16T13:31:27;2.30;;;2.10;;
39970;SDS011;35425;51.142;17.178;2022-10-16T13:33:55;2.58;;;2.38;;
39970;SDS011;35425;51.142;17.178;2022-10-16T13:36:27;2.13;;;2.03;;
39970;SDS011;35425;51.142;17.178;2022-10-16T13:39:01;2.45;;;2.25;;
39970;SDS011;35425;51.142;17.178;2022-10-16T13:41:31;2.50;;;2.20;;
39970;SDS011;35425;51.142;17.178;2022-10-16T13:43:57;2.83;;;2.63;;
39970;SDS011;35425;51.142;17.178;2022-10-16T13:46:24;2.30;;;2.10;;
39970;SDS011;35425;51.142;17.178;2022-10-16T13:48:57;2.70;;;2.50;;
39970;SDS011;35425;51.142;17.178;2022-10-16T13:51:24;2.65;;;2.45;;
39970;SDS011;35425;51.142;17.178;2022-10-16T13:53:50;2.75;;;2.55;;
39970;SDS011;35425;51.142;17.178;2022-10-16T13:56:18;2.72;;;2.53;;
39970;SDS011;35425;51.142;17.178;2022-10-16T13:58:46;2.90;;;2.70;;
39970;SDS011;35425;51.142;17.178;2022-10-16T14:01:17;3.15;;;2.65;;
39970;SDS011;35425;51.142;17.178;2022-10-16T14:03:44;2.45;;;2.25;;
39970;SDS011;35425;51.142;17.178;2022-10-16T14:06:12;2.78;;;2.58;;
39970;SDS011;35425;51.142;17.178;2022-10-16T14:08:41;2.90;;;2.70;;
39970;SDS011;35425;51.142;17.178;2022-10-16T14:11:08;3.17;;;2.97;;
39970;SDS011;35425;51.142;17.178;2022-10-16T14:13:38;3.10;;;2.80;;
39970;SDS011;35425;51.142;17.178;2022-10-16T14:16:07;2.92;;;2.70;;
39970;SDS011;35425;51.142;17.178;2022-10-16T14:18:33;3.03;;;2.83;;
39970;SDS011;35425;51.142;17.178;2022-10-16T14:21:05;2.70;;;2.50;;
39970;SDS011;35425;51.142;17.178;2022-10-16T14:23:34;3.00;;;2.80;;
39970;SDS011;35425;51.142;17.178;2022-10-16T14:28:34;3.17;;;2.88;;
39970;SDS011;35425;51.142;17.178;2022-10-16T14:31:01;3.08;;;2.88;;
39970;SDS011;35425;51.142;17.178;2022-10-16T14:38:28;3.10;;;2.90;;
39970;SDS011;35425;51.142;17.178;2022-10-16T14:40:56;2.90;;;2.70;;
39970;SDS011;35425;51.142;17.178;2022-10-16T14:43:41;3.00;;;2.80;;
39970;SDS011;35425;51.142;17.178;2022-10-16T14:46:18;4.15;;;3.00;;
39970;SDS011;35425;51.142;17.178;2022-10-16T14:48:47;3.65;;;3.35;;
39970;SDS011;35425;51.142;17.178;2022-10-16T14:51:18;3.10;;;2.90;;
39970;SDS011;35425;51.142;17.178;2022-10-16T14:53:45;3.17;;;2.97;;
39970;SDS011;35425;51.142;17.178;2022-10-16T14:58:41;2.90;;;2.70;;
39970;SDS011;35425;51.142;17.178;2022-10-16T15:01:08;3.33;;;3.08;;
39970;SDS011;35425;51.142;17.178;2022-10-16T15:03:37;3.55;;;3.25;;
39970;SDS011;35425;51.142;17.178;2022-10-16T15:06:04;3.33;;;3.13;;
39970;SDS011;35425;51.142;17.178;2022-10-16T15:08:35;3.05;;;2.75;;
39970;SDS011;35425;51.142;17.178;2022-10-16T15:11:02;3.00;;;2.80;;
39970;SDS011;35425;51.142;17.178;2022-10-16T15:13:28;3.42;;;3.13;;
39970;SDS011;35425;51.142;17.178;2022-10-16T15:15:55;3.20;;;3.00;;
39970;SDS011;35425;51.142;17.178;2022-10-16T15:18:21;3.58;;;3.38;;
39970;SDS011;35425;51.142;17.178;2022-10-16T15:20:49;3.53;;;3.22;;
39970;SDS011;35425;51.142;17.178;2022-10-16T15:23:19;3.40;;;3.13;;
39970;SDS011;35425;51.142;17.178;2022-10-16T15:25:47;3.90;;;3.60;;
39970;SDS011;35425;51.142;17.178;2022-10-16T15:28:14;3.33;;;3.13;;
39970;SDS011;35425;51.142;17.178;2022-10-16T15:30:41;3.30;;;3.10;;
39970;SDS011;35425;51.142;17.178;2022-10-16T15:33:26;3.95;;;3.65;;
39970;SDS011;35425;51.142;17.178;2022-10-16T15:35:54;3.30;;;3.10;;
39970;SDS011;35425;51.142;17.178;2022-10-16T15:38:21;3.30;;;3.10;;
39970;SDS011;35425;51.142;17.178;2022-10-16T15:40:48;3.50;;;3.20;;
39970;SDS011;35425;51.142;17.178;2022-10-16T15:43:14;3.45;;;3.15;;
39970;SDS011;35425;51.142;17.178;2022-10-16T15:45:41;3.67;;;3.38;;
39970;SDS011;35425;51.142;17.178;2022-10-16T15:48:11;2.92;;;2.72;;
39970;SDS011;35425;51.142;17.178;2022-10-16T15:50:39;3.45;;;3.25;;
39970;SDS011;35425;51.142;17.178;2022-10-16T15:53:05;3.80;;;3.50;;
39970;SDS011;35425;51.142;17.178;2022-10-16T15:55:32;3.80;;;3.50;;
39970;SDS011;35425;51.142;17.178;2022-10-16T15:57:59;3.30;;;3.10;;
39970;SDS011;35425;51.142;17.178;2022-10-16T16:00:26;3.25;;;3.05;;
39970;SDS011;35425;51.142;17.178;2022-10-16T16:02:52;3.08;;;2.88;;
39970;SDS011;35425;51.142;17.178;2022-10-16T16:05:19;3.38;;;3.17;;
39970;SDS011;35425;51.142;17.178;2022-10-16T16:07:46;3.60;;;3.30;;
39970;SDS011;35425;51.142;17.178;2022-10-16T16:10:13;3.38;;;3.17;;
39970;SDS011;35425;51.142;17.178;2022-10-16T16:12:39;3.10;;;2.90;;
39970;SDS011;35425;51.142;17.178;2022-10-16T16:15:06;3.30;;;3.08;;
39970;SDS011;35425;51.142;17.178;2022-10-16T16:17:33;3.33;;;3.03;;
39970;SDS011;35425;51.142;17.178;2022-10-16T16:20:00;3.30;;;3.00;;
39970;SDS011;35425;51.142;17.178;2022-10-16T16:22:27;3.38;;;3.08;;
39970;SDS011;35425;51.142;17.178;2022-10-16T16:24:54;3.15;;;2.90;;
39970;SDS011;35425;51.142;17.178;2022-10-16T16:27:20;3.60;;;3.30;;
39970;SDS011;35425;51.142;17.178;2022-10-16T16:29:47;3.70;;;3.40;;
39970;SDS011;35425;51.142;17.178;2022-10-16T16:32:13;3.60;;;3.30;;
39970;SDS011;35425;51.142;17.178;2022-10-16T16:34:40;3.53;;;3.17;;